sensor_id;sensor_type;location;lat;lon;timestamp;temperature;humidity
3602;DHT22;1815;50.950;6.920;2022-12-05T00:03:42;6.30;99.90
3602;DHT22;1815;50.950;6.920;2022-12-05T00:06:08;6.30;99.90
3602;DHT22;1815;50.950;6.920;2022-12-05T00:08:34;6.30;99.90
3602;DHT22;1815;50.950;6.920;2022-12-05T00:10:59;6.30;99.90
3602;DHT22;1815;50.950;6.920;2022-12-05T00:13:25;6.30;99.90
3602;DHT22;1815;50.950;6.920;2022-12-05T00:15:51;6.30;99.90
3602;DHT22;1815;50.950;6.920;2022-12-05T00:18:16;6.30;99.90
3602;DHT22;1815;50.950;6.920;2022-12-05T00:20:47;6.30;99.90
3602;DHT22;1815;50.950;6.920;2022-12-05T00:23:13;6.30;99.90
3602;DHT22;1815;50.950;6.920;2022-12-05T00:25:40;6.30;99.90
3602;DHT22;1815;50.950;6.920;2022-12-05T00:28:05;6.30;99.90
3602;DHT22;1815;50.950;6.920;2022-12-05T00:30:31;6.20;99.90
3602;DHT22;1815;50.950;6.920;2022-12-05T00:32:57;6.30;99.90
3602;DHT22;1815;50.950;6.920;2022-12-05T00:35:23;6.20;99.90
3602;DHT22;1815;50.950;6.920;2022-12-05T00:37:49;6.20;99.90
3602;DHT22;1815;50.950;6.920;2022-12-05T00:40:15;6.20;99.90
3602;DHT22;1815;50.950;6.920;2022-12-05T00:42:40;6.20;99.90
3602;DHT22;1815;50.950;6.920;2022-12-05T00:45:07;6.20;99.90
3602;DHT22;1815;50.950;6.920;2022-12-05T00:47:36;6.20;99.90
3602;DHT22;1815;50.950;6.920;2022-12-05T00:50:03;6.20;99.90
3602;DHT22;1815;50.950;6.920;2022-12-05T00:52:29;6.20;99.90
3602;DHT22;1815;50.950;6.920;2022-12-05T00:54:55;6.20;99.90
3602;DHT22;1815;50.950;6.920;2022-12-05T00:57:21;6.20;99.90
3602;DHT22;1815;50.950;6.920;2022-12-05T00:59:47;6.20;99.90
3602;DHT22;1815;50.950;6.920;2022-12-05T01:02:13;6.20;99.90
3602;DHT22;1815;50.950;6.920;2022-12-05T01:04:39;6.20;99.90
3602;DHT22;1815;50.950;6.920;2022-12-05T01:11:08;6.20;99.90
3602;DHT22;1815;50.950;6.920;2022-12-05T01:13:34;6.20;99.90
3602;DHT22;1815;50.950;6.920;2022-12-05T01:16:00;6.20;99.90
3602;DHT22;1815;50.950;6.920;2022-12-05T01:18:27;6.20;99.90
3602;DHT22;1815;50.950;6.920;2022-12-05T01:20:53;6.30;99.90
3602;DHT22;1815;50.950;6.920;2022-12-05T01:23:19;6.20;99.90
3602;DHT22;1815;50.950;6.920;2022-12-05T01:25:47;6.30;99.90
3602;DHT22;1815;50.950;6.920;2022-12-05T01:28:15;6.30;99.90
3602;DHT22;1815;50.950;6.920;2022-12-05T01:30:43;6.20;99.90
3602;DHT22;1815;50.950;6.920;2022-12-05T01:33:10;6.20;99.90
3602;DHT22;1815;50.950;6.920;2022-12-05T01:35:37;6.30;99.90
3602;DHT22;1815;50.950;6.920;2022-12-05T01:38:04;6.30;99.90
3602;DHT22;1815;50.950;6.920;2022-12-05T01:40:31;6.20;99.90
3602;DHT22;1815;50.950;6.920;2022-12-05T01:42:57;6.30;99.90
3602;DHT22;1815;50.950;6.920;2022-12-05T01:45:36;6.30;99.90
3602;DHT22;1815;50.950;6.920;2022-12-05T01:48:05;6.30;99.90
3602;DHT22;1815;50.950;6.920;2022-12-05T01:50:33;6.30;99.90
3602;DHT22;1815;50.950;6.920;2022-12-05T01:53:00;6.30;99.90
3602;DHT22;1815;50.950;6.920;2022-12-05T01:55:26;6.30;99.90
3602;DHT22;1815;50.950;6.920;2022-12-05T01:57:52;6.30;99.90
3602;DHT22;1815;50.950;6.920;2022-12-05T02:00:19;6.30;99.90
3602;DHT22;1815;50.950;6.920;2022-12-05T02:02:50;6.30;99.90
3602;DHT22;1815;50.950;6.920;2022-12-05T02:05:20;6.30;99.90
3602;DHT22;1815;50.950;6.920;2022-12-05T02:07:47;6.30;99.90
3602;DHT22;1815;50.950;6.920;2022-12-05T02:10:13;6.30;99.90
3602;DHT22;1815;50.950;6.920;2022-12-05T02:12:39;6.40;99.90
3602;DHT22;1815;50.950;6.920;2022-12-05T02:18:10;6.40;99.90
3602;DHT22;1815;50.950;6.920;2022-12-05T02:29:08;6.40;99.90
3602;DHT22;1815;50.950;6.920;2022-12-05T02:32:06;6.40;99.90
3602;DHT22;1815;50.950;6.920;2022-12-05T02:34:43;6.40;99.90
3602;DHT22;1815;50.950;6.920;2022-12-05T02:37:30;6.40;99.90
3602;DHT22;1815;50.950;6.920;2022-12-05T02:40:04;6.40;99.90
3602;DHT22;1815;50.950;6.920;2022-12-05T02:45:24;6.40;99.90
3602;DHT22;1815;50.950;6.920;2022-12-05T02:47:53;6.40;99.90
3602;DHT22;1815;50.950;6.920;2022-12-05T02:50:33;6.40;99.90
3602;DHT22;1815;50.950;6.920;2022-12-05T02:53:11;6.30;99.90
3602;DHT22;1815;50.950;6.920;2022-12-05T02:55:40;6.30;99.90
3602;DHT22;1815;50.950;6.920;2022-12-05T02:58:10;6.30;99.90
3602;DHT22;1815;50.950;6.920;2022-12-05T03:00:39;6.30;99.90
3602;DHT22;1815;50.950;6.920;2022-12-05T03:03:18;6.20;99.90
3602;DHT22;1815;50.950;6.920;2022-12-05T03:05:59;6.20;99.90
3602;DHT22;1815;50.950;6.920;2022-12-05T03:08:40;6.20;99.90
3602;DHT22;1815;50.950;6.920;2022-12-05T03:11:07;6.10;99.90
3602;DHT22;1815;50.950;6.920;2022-12-05T03:13:55;6.10;99.90
3602;DHT22;1815;50.950;6.920;2022-12-05T03:16:37;6.00;99.90
3602;DHT22;1815;50.950;6.920;2022-12-05T03:19:42;5.90;99.90
3602;DHT22;1815;50.950;6.920;2022-12-05T03:22:26;5.90;99.90
3602;DHT22;1815;50.950;6.920;2022-12-05T03:24:58;5.80;99.90
3602;DHT22;1815;50.950;6.920;2022-12-05T03:27:29;5.80;99.90
3602;DHT22;1815;50.950;6.920;2022-12-05T03:30:14;5.70;99.90
3602;DHT22;1815;50.950;6.920;2022-12-05T03:33:01;5.70;99.90
3602;DHT22;1815;50.950;6.920;2022-12-05T03:35:35;5.60;99.90
3602;DHT22;1815;50.950;6.920;2022-12-05T03:38:24;5.60;99.90
3602;DHT22;1815;50.950;6.920;2022-12-05T03:43:32;5.60;99.90
3602;DHT22;1815;50.950;6.920;2022-12-05T03:46:13;5.50;99.90
3602;DHT22;1815;50.950;6.920;2022-12-05T03:51:34;5.50;99.90
3602;DHT22;1815;50.950;6.920;2022-12-05T03:54:09;5.40;99.90
3602;DHT22;1815;50.950;6.920;2022-12-05T03:56:47;5.40;99.90
3602;DHT22;1815;50.950;6.920;2022-12-05T03:59:34;5.40;99.90
3602;DHT22;1815;50.950;6.920;2022-12-05T04:02:08;5.30;99.90
3602;DHT22;1815;50.950;6.920;2022-12-05T04:04:49;5.30;99.90
3602;DHT22;1815;50.950;6.920;2022-12-05T04:07:18;5.30;99.90
3602;DHT22;1815;50.950;6.920;2022-12-05T04:09:54;5.20;99.90
3602;DHT22;1815;50.950;6.920;2022-12-05T04:12:29;5.10;99.90
3602;DHT22;1815;50.950;6.920;2022-12-05T04:15:03;5.00;99.90
3602;DHT22;1815;50.950;6.920;2022-12-05T04:17:56;5.00;99.90
3602;DHT22;1815;50.950;6.920;2022-12-05T04:20:36;5.00;99.90
3602;DHT22;1815;50.950;6.920;2022-12-05T04:23:21;5.00;99.90
3602;DHT22;1815;50.950;6.920;2022-12-05T04:28:41;4.90;99.90
3602;DHT22;1815;50.950;6.920;2022-12-05T04:31:18;4.90;99.90
3602;DHT22;1815;50.950;6.920;2022-12-05T04:33:59;4.90;99.90
3602;DHT22;1815;50.950;6.920;2022-12-05T04:39:11;4.90;99.90
3602;DHT22;1815;50.950;6.920;2022-12-05T04:41:58;4.80;99.90
3602;DHT22;1815;50.950;6.920;2022-12-05T04:44:28;4.90;99.90
3602;DHT22;1815;50.950;6.920;2022-12-05T04:46:56;4.80;99.90
3602;DHT22;1815;50.950;6.920;2022-12-05T04:49:26;4.90;99.90
3602;DHT22;1815;50.950;6.920;2022-12-05T04:51:56;4.90;99.90
3602;DHT22;1815;50.950;6.920;2022-12-05T04:54:44;4.90;99.90
3602;DHT22;1815;50.950;6.920;2022-12-05T04:57:15;4.90;99.90
3602;DHT22;1815;50.950;6.920;2022-12-05T04:59:42;4.90;99.90
3602;DHT22;1815;50.950;6.920;2022-12-05T05:02:09;4.90;99.90
3602;DHT22;1815;50.950;6.920;2022-12-05T05:04:46;4.90;99.90
3602;DHT22;1815;50.950;6.920;2022-12-05T05:07:12;4.90;99.90
3602;DHT22;1815;50.950;6.920;2022-12-05T05:09:39;4.90;99.90
3602;DHT22;1815;50.950;6.920;2022-12-05T05:12:05;4.90;99.90
3602;DHT22;1815;50.950;6.920;2022-12-05T05:14:31;4.90;99.90
3602;DHT22;1815;50.950;6.920;2022-12-05T05:16:57;4.90;99.90
3602;DHT22;1815;50.950;6.920;2022-12-05T05:19:23;4.90;99.90
3602;DHT22;1815;50.950;6.920;2022-12-05T05:21:50;4.90;99.90
3602;DHT22;1815;50.950;6.920;2022-12-05T05:24:16;4.90;99.90
3602;DHT22;1815;50.950;6.920;2022-12-05T05:26:44;4.90;99.90
3602;DHT22;1815;50.950;6.920;2022-12-05T05:29:11;5.00;99.90
3602;DHT22;1815;50.950;6.920;2022-12-05T05:31:38;5.00;99.90
3602;DHT22;1815;50.950;6.920;2022-12-05T05:34:04;5.00;99.90
3602;DHT22;1815;50.950;6.920;2022-12-05T05:36:30;5.00;99.90
3602;DHT22;1815;50.950;6.920;2022-12-05T05:38:58;5.00;99.90
3602;DHT22;1815;50.950;6.920;2022-12-05T05:41:26;5.00;99.90
3602;DHT22;1815;50.950;6.920;2022-12-05T05:43:53;5.00;99.90
3602;DHT22;1815;50.950;6.920;2022-12-05T05:46:21;5.00;99.90
3602;DHT22;1815;50.950;6.920;2022-12-05T05:48:48;5.00;99.90
3602;DHT22;1815;50.950;6.920;2022-12-05T05:51:15;5.00;99.90
3602;DHT22;1815;50.950;6.920;2022-12-05T05:53:41;5.00;99.90
3602;DHT22;1815;50.950;6.920;2022-12-05T05:56:12;5.00;99.90
3602;DHT22;1815;50.950;6.920;2022-12-05T05:58:38;4.90;99.90
3602;DHT22;1815;50.950;6.920;2022-12-05T06:03:33;5.00;99.90
3602;DHT22;1815;50.950;6.920;2022-12-05T06:06:01;5.00;99.90
3602;DHT22;1815;50.950;6.920;2022-12-05T06:08:34;4.90;99.90
3602;DHT22;1815;50.950;6.920;2022-12-05T06:11:05;4.90;99.90
3602;DHT22;1815;50.950;6.920;2022-12-05T06:13:31;4.90;99.90
3602;DHT22;1815;50.950;6.920;2022-12-05T06:15:57;4.90;99.90
3602;DHT22;1815;50.950;6.920;2022-12-05T06:18:22;4.90;99.90
3602;DHT22;1815;50.950;6.920;2022-12-05T06:20:56;4.90;99.90
3602;DHT22;1815;50.950;6.920;2022-12-05T06:23:22;4.90;99.90
3602;DHT22;1815;50.950;6.920;2022-12-05T06:25:49;4.90;99.90
3602;DHT22;1815;50.950;6.920;2022-12-05T06:28:16;4.90;99.90
3602;DHT22;1815;50.950;6.920;2022-12-05T06:30:42;4.80;99.90
3602;DHT22;1815;50.950;6.920;2022-12-05T06:33:08;4.90;99.90
3602;DHT22;1815;50.950;6.920;2022-12-05T06:35:34;4.80;99.90
3602;DHT22;1815;50.950;6.920;2022-12-05T06:38:00;4.80;99.90
3602;DHT22;1815;50.950;6.920;2022-12-05T06:40:26;4.80;99.90
3602;DHT22;1815;50.950;6.920;2022-12-05T06:42:52;4.80;99.90
3602;DHT22;1815;50.950;6.920;2022-12-05T06:45:19;4.80;99.90
3602;DHT22;1815;50.950;6.920;2022-12-05T06:47:44;4.80;99.90
3602;DHT22;1815;50.950;6.920;2022-12-05T06:50:10;4.80;99.90
3602;DHT22;1815;50.950;6.920;2022-12-05T06:52:36;4.80;99.90
3602;DHT22;1815;50.950;6.920;2022-12-05T06:55:02;4.80;99.90
3602;DHT22;1815;50.950;6.920;2022-12-05T06:57:28;4.80;99.90
3602;DHT22;1815;50.950;6.920;2022-12-05T06:59:54;4.80;99.90
3602;DHT22;1815;50.950;6.920;2022-12-05T07:02:39;4.80;99.90
3602;DHT22;1815;50.950;6.920;2022-12-05T07:05:09;4.80;99.90
3602;DHT22;1815;50.950;6.920;2022-12-05T07:07:35;4.80;99.90
3602;DHT22;1815;50.950;6.920;2022-12-05T07:10:02;4.80;99.90
3602;DHT22;1815;50.950;6.920;2022-12-05T07:12:29;4.80;99.90
3602;DHT22;1815;50.950;6.920;2022-12-05T07:14:56;4.80;99.90
3602;DHT22;1815;50.950;6.920;2022-12-05T07:17:22;4.80;99.90
3602;DHT22;1815;50.950;6.920;2022-12-05T07:19:49;4.80;99.90
3602;DHT22;1815;50.950;6.920;2022-12-05T07:22:19;4.80;99.90
3602;DHT22;1815;50.950;6.920;2022-12-05T07:24:45;4.90;99.90
3602;DHT22;1815;50.950;6.920;2022-12-05T07:27:13;4.90;99.90
3602;DHT22;1815;50.950;6.920;2022-12-05T07:29:40;4.90;99.90
3602;DHT22;1815;50.950;6.920;2022-12-05T07:32:09;4.90;99.90
3602;DHT22;1815;50.950;6.920;2022-12-05T07:34:35;4.80;99.90
3602;DHT22;1815;50.950;6.920;2022-12-05T07:37:03;4.90;99.90
3602;DHT22;1815;50.950;6.920;2022-12-05T07:39:29;4.90;99.90
3602;DHT22;1815;50.950;6.920;2022-12-05T07:41:55;5.00;99.90
3602;DHT22;1815;50.950;6.920;2022-12-05T07:44:21;5.00;99.90
3602;DHT22;1815;50.950;6.920;2022-12-05T07:46:46;5.10;99.90
3602;DHT22;1815;50.950;6.920;2022-12-05T07:49:12;5.10;99.90
3602;DHT22;1815;50.950;6.920;2022-12-05T07:51:41;5.10;99.90
3602;DHT22;1815;50.950;6.920;2022-12-05T07:54:07;5.10;99.90
3602;DHT22;1815;50.950;6.920;2022-12-05T07:56:32;5.10;99.90
3602;DHT22;1815;50.950;6.920;2022-12-05T07:58:58;5.10;99.90
3602;DHT22;1815;50.950;6.920;2022-12-05T08:01:28;5.10;99.90
3602;DHT22;1815;50.950;6.920;2022-12-05T08:03:56;5.10;99.90
3602;DHT22;1815;50.950;6.920;2022-12-05T08:06:30;5.10;99.90
3602;DHT22;1815;50.950;6.920;2022-12-05T08:08:56;5.10;99.90
3602;DHT22;1815;50.950;6.920;2022-12-05T08:11:24;5.10;99.90
3602;DHT22;1815;50.950;6.920;2022-12-05T08:13:51;5.10;99.90
3602;DHT22;1815;50.950;6.920;2022-12-05T08:16:20;5.20;99.90
3602;DHT22;1815;50.950;6.920;2022-12-05T08:18:46;5.20;99.90
3602;DHT22;1815;50.950;6.920;2022-12-05T08:21:15;5.20;99.90
3602;DHT22;1815;50.950;6.920;2022-12-05T08:23:42;5.20;99.90
3602;DHT22;1815;50.950;6.920;2022-12-05T08:26:11;5.30;99.90
3602;DHT22;1815;50.950;6.920;2022-12-05T08:28:37;5.20;99.90
3602;DHT22;1815;50.950;6.920;2022-12-05T08:33:30;5.30;99.90
3602;DHT22;1815;50.950;6.920;2022-12-05T08:35:56;5.30;99.90
3602;DHT22;1815;50.950;6.920;2022-12-05T08:38:22;5.20;99.90
3602;DHT22;1815;50.950;6.920;2022-12-05T08:40:47;5.30;99.90
3602;DHT22;1815;50.950;6.920;2022-12-05T08:43:13;5.20;99.90
3602;DHT22;1815;50.950;6.920;2022-12-05T08:45:39;5.30;99.90
3602;DHT22;1815;50.950;6.920;2022-12-05T08:48:05;5.30;99.90
3602;DHT22;1815;50.950;6.920;2022-12-05T08:50:30;5.30;99.90
3602;DHT22;1815;50.950;6.920;2022-12-05T08:52:56;5.30;99.90
3602;DHT22;1815;50.950;6.920;2022-12-05T08:55:23;5.30;99.90
3602;DHT22;1815;50.950;6.920;2022-12-05T08:57:48;5.40;99.90
3602;DHT22;1815;50.950;6.920;2022-12-05T09:00:14;5.40;99.90
3602;DHT22;1815;50.950;6.920;2022-12-05T09:02:40;5.40;99.90
3602;DHT22;1815;50.950;6.920;2022-12-05T09:05:10;5.40;99.90
3602;DHT22;1815;50.950;6.920;2022-12-05T09:07:38;5.40;99.90
3602;DHT22;1815;50.950;6.920;2022-12-05T09:10:04;5.40;99.90
3602;DHT22;1815;50.950;6.920;2022-12-05T09:12:30;5.40;99.90
3602;DHT22;1815;50.950;6.920;2022-12-05T09:14:56;5.50;99.90
3602;DHT22;1815;50.950;6.920;2022-12-05T09:17:22;5.50;99.90
3602;DHT22;1815;50.950;6.920;2022-12-05T09:19:50;5.50;99.90
3602;DHT22;1815;50.950;6.920;2022-12-05T09:22:17;5.50;99.90
3602;DHT22;1815;50.950;6.920;2022-12-05T09:24:42;5.50;99.90
3602;DHT22;1815;50.950;6.920;2022-12-05T09:27:08;5.50;99.90
3602;DHT22;1815;50.950;6.920;2022-12-05T09:29:34;5.50;99.90
3602;DHT22;1815;50.950;6.920;2022-12-05T09:32:00;5.50;99.90
3602;DHT22;1815;50.950;6.920;2022-12-05T09:34:26;5.50;99.90
3602;DHT22;1815;50.950;6.920;2022-12-05T09:36:52;5.40;99.90
3602;DHT22;1815;50.950;6.920;2022-12-05T09:39:18;5.50;99.90
3602;DHT22;1815;50.950;6.920;2022-12-05T09:58:20;5.70;99.90
3602;DHT22;1815;50.950;6.920;2022-12-05T10:00:49;5.80;99.90
3602;DHT22;1815;50.950;6.920;2022-12-05T10:06:01;5.90;99.90
3602;DHT22;1815;50.950;6.920;2022-12-05T10:08:32;6.00;99.90
3602;DHT22;1815;50.950;6.920;2022-12-05T10:11:05;6.00;99.90
3602;DHT22;1815;50.950;6.920;2022-12-05T10:13:37;6.10;99.90
3602;DHT22;1815;50.950;6.920;2022-12-05T10:16:12;6.20;99.90
3602;DHT22;1815;50.950;6.920;2022-12-05T10:19:09;6.20;99.90
3602;DHT22;1815;50.950;6.920;2022-12-05T10:21:55;6.30;99.90
3602;DHT22;1815;50.950;6.920;2022-12-05T10:24:35;6.30;99.90
3602;DHT22;1815;50.950;6.920;2022-12-05T10:27:05;6.30;99.90
3602;DHT22;1815;50.950;6.920;2022-12-05T10:29:42;6.40;99.90
3602;DHT22;1815;50.950;6.920;2022-12-05T10:32:19;6.40;99.90
3602;DHT22;1815;50.950;6.920;2022-12-05T10:34:46;6.40;99.90
3602;DHT22;1815;50.950;6.920;2022-12-05T10:37:16;6.40;99.90
3602;DHT22;1815;50.950;6.920;2022-12-05T10:39:43;6.50;99.90
3602;DHT22;1815;50.950;6.920;2022-12-05T10:42:25;6.50;99.90
3602;DHT22;1815;50.950;6.920;2022-12-05T10:45:06;6.60;99.90
3602;DHT22;1815;50.950;6.920;2022-12-05T10:47:33;6.70;99.90
3602;DHT22;1815;50.950;6.920;2022-12-05T10:50:21;6.70;99.90
3602;DHT22;1815;50.950;6.920;2022-12-05T10:52:48;6.80;99.90
3602;DHT22;1815;50.950;6.920;2022-12-05T10:55:16;6.80;99.90
3602;DHT22;1815;50.950;6.920;2022-12-05T10:57:48;6.80;99.90
3602;DHT22;1815;50.950;6.920;2022-12-05T11:00:22;6.80;99.90
3602;DHT22;1815;50.950;6.920;2022-12-05T11:02:48;6.80;99.90
3602;DHT22;1815;50.950;6.920;2022-12-05T11:05:14;6.90;99.90
3602;DHT22;1815;50.950;6.920;2022-12-05T11:10:34;6.90;99.90
3602;DHT22;1815;50.950;6.920;2022-12-05T11:13:13;6.90;99.90
3602;DHT22;1815;50.950;6.920;2022-12-05T11:15:45;6.90;99.90
3602;DHT22;1815;50.950;6.920;2022-12-05T11:20:57;6.90;99.90
3602;DHT22;1815;50.950;6.920;2022-12-05T11:23:32;6.90;99.90
3602;DHT22;1815;50.950;6.920;2022-12-05T11:25:58;6.90;99.90
3602;DHT22;1815;50.950;6.920;2022-12-05T11:28:31;6.90;99.90
3602;DHT22;1815;50.950;6.920;2022-12-05T11:33:30;6.90;99.90
3602;DHT22;1815;50.950;6.920;2022-12-05T11:36:22;6.90;99.90
3602;DHT22;1815;50.950;6.920;2022-12-05T11:38:48;6.90;99.90
3602;DHT22;1815;50.950;6.920;2022-12-05T11:44:50;6.80;99.90
3602;DHT22;1815;50.950;6.920;2022-12-05T11:47:20;6.80;99.90
3602;DHT22;1815;50.950;6.920;2022-12-05T12:09:54;6.60;99.90
3602;DHT22;1815;50.950;6.920;2022-12-05T12:12:38;6.60;99.90
3602;DHT22;1815;50.950;6.920;2022-12-05T12:20:55;6.60;99.90
3602;DHT22;1815;50.950;6.920;2022-12-05T12:35:22;6.60;99.90
3602;DHT22;1815;50.950;6.920;2022-12-05T12:41:50;6.70;99.90
3602;DHT22;1815;50.950;6.920;2022-12-05T12:51:52;6.90;99.90
3602;DHT22;1815;50.950;6.920;2022-12-05T12:54:44;6.90;99.90
3602;DHT22;1815;50.950;6.920;2022-12-05T12:57:26;6.90;99.90
3602;DHT22;1815;50.950;6.920;2022-12-05T13:00:19;6.90;99.90
3602;DHT22;1815;50.950;6.920;2022-12-05T13:02:53;6.90;99.90
3602;DHT22;1815;50.950;6.920;2022-12-05T13:05:44;6.90;99.90
3602;DHT22;1815;50.950;6.920;2022-12-05T13:10:51;6.90;99.90
3602;DHT22;1815;50.950;6.920;2022-12-05T13:13:24;6.90;99.90
3602;DHT22;1815;50.950;6.920;2022-12-05T13:15:54;6.80;99.90
3602;DHT22;1815;50.950;6.920;2022-12-05T13:18:23;6.80;99.90
3602;DHT22;1815;50.950;6.920;2022-12-05T13:20:52;6.80;99.90
3602;DHT22;1815;50.950;6.920;2022-12-05T13:23:28;6.80;99.90
3602;DHT22;1815;50.950;6.920;2022-12-05T13:25:56;6.70;99.90
3602;DHT22;1815;50.950;6.920;2022-12-05T13:28:29;6.70;99.90
3602;DHT22;1815;50.950;6.920;2022-12-05T13:30:56;6.70;99.90
3602;DHT22;1815;50.950;6.920;2022-12-05T13:33:45;6.70;99.90
3602;DHT22;1815;50.950;6.920;2022-12-05T13:36:18;6.60;99.90
3602;DHT22;1815;50.950;6.920;2022-12-05T13:41:51;6.60;99.90
3602;DHT22;1815;50.950;6.920;2022-12-05T13:44:46;6.50;99.90
3602;DHT22;1815;50.950;6.920;2022-12-05T13:47:27;6.50;99.90
3602;DHT22;1815;50.950;6.920;2022-12-05T13:50:15;6.50;99.90
3602;DHT22;1815;50.950;6.920;2022-12-05T13:52:54;6.40;99.90
3602;DHT22;1815;50.950;6.920;2022-12-05T13:55:36;6.40;99.90
3602;DHT22;1815;50.950;6.920;2022-12-05T14:00:48;6.40;99.90
3602;DHT22;1815;50.950;6.920;2022-12-05T14:03:17;6.40;99.90
3602;DHT22;1815;50.950;6.920;2022-12-05T14:06:02;6.30;99.90
3602;DHT22;1815;50.950;6.920;2022-12-05T14:15:49;6.30;99.90
3602;DHT22;1815;50.950;6.920;2022-12-05T14:18:46;6.30;99.90
3602;DHT22;1815;50.950;6.920;2022-12-05T14:23:56;6.20;99.90
3602;DHT22;1815;50.950;6.920;2022-12-05T14:34:48;6.00;99.90
3602;DHT22;1815;50.950;6.920;2022-12-05T14:39:51;6.00;99.90
3602;DHT22;1815;50.950;6.920;2022-12-05T14:42:35;6.00;99.90
3602;DHT22;1815;50.950;6.920;2022-12-05T14:50:46;5.90;99.90
3602;DHT22;1815;50.950;6.920;2022-12-05T14:53:23;5.90;99.90
3602;DHT22;1815;50.950;6.920;2022-12-05T15:09:29;5.90;99.90
3602;DHT22;1815;50.950;6.920;2022-12-05T15:11:59;5.80;99.90
3602;DHT22;1815;50.950;6.920;2022-12-05T15:14:28;5.90;99.90
3602;DHT22;1815;50.950;6.920;2022-12-05T15:16:58;5.80;99.90
3602;DHT22;1815;50.950;6.920;2022-12-05T15:19:37;5.80;99.90
3602;DHT22;1815;50.950;6.920;2022-12-05T15:22:07;5.80;99.90
3602;DHT22;1815;50.950;6.920;2022-12-05T15:24:37;5.80;99.90
3602;DHT22;1815;50.950;6.920;2022-12-05T15:27:06;5.80;99.90
3602;DHT22;1815;50.950;6.920;2022-12-05T15:29:37;5.80;99.90
3602;DHT22;1815;50.950;6.920;2022-12-05T15:34:37;5.80;99.90
3602;DHT22;1815;50.950;6.920;2022-12-05T15:42:26;5.70;99.90
3602;DHT22;1815;50.950;6.920;2022-12-05T15:58:21;5.70;99.90
3602;DHT22;1815;50.950;6.920;2022-12-05T16:00:52;5.60;99.90
3602;DHT22;1815;50.950;6.920;2022-12-05T16:03:51;5.60;99.90
3602;DHT22;1815;50.950;6.920;2022-12-05T16:06:49;5.60;99.90
3602;DHT22;1815;50.950;6.920;2022-12-05T16:09:22;5.60;99.90
3602;DHT22;1815;50.950;6.920;2022-12-05T16:11:57;5.60;99.90
3602;DHT22;1815;50.950;6.920;2022-12-05T16:14:28;5.50;99.90
3602;DHT22;1815;50.950;6.920;2022-12-05T16:16:58;5.60;99.90
3602;DHT22;1815;50.950;6.920;2022-12-05T16:19:28;5.50;99.90
3602;DHT22;1815;50.950;6.920;2022-12-05T16:25:02;5.50;99.90
3602;DHT22;1815;50.950;6.920;2022-12-05T16:27:35;5.50;99.90
3602;DHT22;1815;50.950;6.920;2022-12-05T16:30:17;5.50;99.90
3602;DHT22;1815;50.950;6.920;2022-12-05T16:32:45;5.40;99.90
3602;DHT22;1815;50.950;6.920;2022-12-05T16:35:36;5.40;99.90
3602;DHT22;1815;50.950;6.920;2022-12-05T16:40:32;5.40;99.90
3602;DHT22;1815;50.950;6.920;2022-12-05T16:43:03;5.40;99.90
3602;DHT22;1815;50.950;6.920;2022-12-05T16:45:43;5.40;99.90
3602;DHT22;1815;50.950;6.920;2022-12-05T16:50:43;5.40;99.90
3602;DHT22;1815;50.950;6.920;2022-12-05T16:55:38;5.40;99.90
3602;DHT22;1815;50.950;6.920;2022-12-05T16:58:05;5.40;99.90
3602;DHT22;1815;50.950;6.920;2022-12-05T17:00:31;5.40;99.90
3602;DHT22;1815;50.950;6.920;2022-12-05T17:02:57;5.40;99.90
3602;DHT22;1815;50.950;6.920;2022-12-05T17:05:23;5.40;99.90
3602;DHT22;1815;50.950;6.920;2022-12-05T17:07:50;5.40;99.90
3602;DHT22;1815;50.950;6.920;2022-12-05T17:10:17;5.40;99.90
3602;DHT22;1815;50.950;6.920;2022-12-05T17:12:43;5.40;99.90
3602;DHT22;1815;50.950;6.920;2022-12-05T17:15:16;5.40;99.90
3602;DHT22;1815;50.950;6.920;2022-12-05T17:17:42;5.30;99.90
3602;DHT22;1815;50.950;6.920;2022-12-05T17:20:08;5.30;99.90
3602;DHT22;1815;50.950;6.920;2022-12-05T17:22:34;5.30;99.90
3602;DHT22;1815;50.950;6.920;2022-12-05T17:25:00;5.30;99.90
3602;DHT22;1815;50.950;6.920;2022-12-05T17:27:26;5.30;99.90
3602;DHT22;1815;50.950;6.920;2022-12-05T17:29:52;5.30;99.90
3602;DHT22;1815;50.950;6.920;2022-12-05T17:32:18;5.20;99.90
3602;DHT22;1815;50.950;6.920;2022-12-05T17:34:44;5.20;99.90
3602;DHT22;1815;50.950;6.920;2022-12-05T17:37:09;5.20;99.90
3602;DHT22;1815;50.950;6.920;2022-12-05T17:39:35;5.20;99.90
3602;DHT22;1815;50.950;6.920;2022-12-05T17:42:02;5.10;99.90
3602;DHT22;1815;50.950;6.920;2022-12-05T17:44:28;5.10;99.90
3602;DHT22;1815;50.950;6.920;2022-12-05T17:46:54;5.10;99.90
3602;DHT22;1815;50.950;6.920;2022-12-05T17:49:19;5.10;99.90
3602;DHT22;1815;50.950;6.920;2022-12-05T17:51:47;5.00;99.90
3602;DHT22;1815;50.950;6.920;2022-12-05T17:54:13;5.00;99.90
3602;DHT22;1815;50.950;6.920;2022-12-05T17:56:38;5.00;99.90
3602;DHT22;1815;50.950;6.920;2022-12-05T17:59:04;5.00;99.90
3602;DHT22;1815;50.950;6.920;2022-12-05T18:01:30;5.00;99.90
3602;DHT22;1815;50.950;6.920;2022-12-05T18:03:56;5.00;99.90
3602;DHT22;1815;50.950;6.920;2022-12-05T18:06:21;5.00;99.90
3602;DHT22;1815;50.950;6.920;2022-12-05T18:08:47;5.00;99.90
3602;DHT22;1815;50.950;6.920;2022-12-05T18:11:14;4.90;99.90
3602;DHT22;1815;50.950;6.920;2022-12-05T18:13:40;4.90;99.90
3602;DHT22;1815;50.950;6.920;2022-12-05T18:16:06;4.90;99.90
3602;DHT22;1815;50.950;6.920;2022-12-05T18:18:32;4.90;99.90
3602;DHT22;1815;50.950;6.920;2022-12-05T18:21:09;4.90;99.90
3602;DHT22;1815;50.950;6.920;2022-12-05T18:23:36;4.90;99.90
3602;DHT22;1815;50.950;6.920;2022-12-05T18:26:04;4.90;99.90
3602;DHT22;1815;50.950;6.920;2022-12-05T18:28:30;4.90;99.90
3602;DHT22;1815;50.950;6.920;2022-12-05T18:33:28;4.80;99.90
3602;DHT22;1815;50.950;6.920;2022-12-05T18:35:54;4.90;99.90
3602;DHT22;1815;50.950;6.920;2022-12-05T18:38:20;4.90;99.90
3602;DHT22;1815;50.950;6.920;2022-12-05T18:40:45;4.90;99.90
3602;DHT22;1815;50.950;6.920;2022-12-05T18:43:11;4.90;99.90
3602;DHT22;1815;50.950;6.920;2022-12-05T18:45:37;4.90;99.90
3602;DHT22;1815;50.950;6.920;2022-12-05T18:48:03;4.90;99.90
3602;DHT22;1815;50.950;6.920;2022-12-05T18:50:29;4.90;99.90
3602;DHT22;1815;50.950;6.920;2022-12-05T18:52:55;4.90;99.90
3602;DHT22;1815;50.950;6.920;2022-12-05T18:55:22;5.00;99.90
3602;DHT22;1815;50.950;6.920;2022-12-05T18:57:48;5.00;99.90
3602;DHT22;1815;50.950;6.920;2022-12-05T19:00:16;5.00;99.90
3602;DHT22;1815;50.950;6.920;2022-12-05T19:02:42;5.00;99.90
3602;DHT22;1815;50.950;6.920;2022-12-05T19:05:08;5.00;99.90
3602;DHT22;1815;50.950;6.920;2022-12-05T19:07:34;5.00;99.90
3602;DHT22;1815;50.950;6.920;2022-12-05T19:09:59;5.00;99.90
3602;DHT22;1815;50.950;6.920;2022-12-05T19:12:25;5.00;99.90
3602;DHT22;1815;50.950;6.920;2022-12-05T19:14:51;5.00;99.90
3602;DHT22;1815;50.950;6.920;2022-12-05T19:17:17;5.00;99.90
3602;DHT22;1815;50.950;6.920;2022-12-05T19:19:42;5.00;99.90
3602;DHT22;1815;50.950;6.920;2022-12-05T19:22:08;5.00;99.90
3602;DHT22;1815;50.950;6.920;2022-12-05T19:24:34;5.00;99.90
3602;DHT22;1815;50.950;6.920;2022-12-05T19:27:01;5.00;99.90
3602;DHT22;1815;50.950;6.920;2022-12-05T19:29:30;5.00;99.90
3602;DHT22;1815;50.950;6.920;2022-12-05T19:31:56;5.10;99.90
3602;DHT22;1815;50.950;6.920;2022-12-05T19:34:21;5.10;99.90
3602;DHT22;1815;50.950;6.920;2022-12-05T19:36:48;5.10;99.90
3602;DHT22;1815;50.950;6.920;2022-12-05T19:39:19;5.10;99.90
3602;DHT22;1815;50.950;6.920;2022-12-05T19:41:45;5.10;99.90
3602;DHT22;1815;50.950;6.920;2022-12-05T19:44:12;5.10;99.90
3602;DHT22;1815;50.950;6.920;2022-12-05T19:46:38;5.10;99.90
3602;DHT22;1815;50.950;6.920;2022-12-05T19:49:06;5.00;99.90
3602;DHT22;1815;50.950;6.920;2022-12-05T19:51:33;5.10;99.90
3602;DHT22;1815;50.950;6.920;2022-12-05T19:54:00;5.00;99.90
3602;DHT22;1815;50.950;6.920;2022-12-05T19:56:27;5.10;99.90